Terminal Aerodrome Forecast
Issued by NWS

Home | Current Version | Previous Version | Text Only | Print | Product List | Glossary On
Versions: 1 2 3 4 5 6 7 8 9 10 11 12 13 14 15 16 17 18 19 20 21 22 23 24 25 26
000
FTUS41 KOKX 281400 AAA
TAFGON
TAF AMD
KGON 281426Z 2814/0112 35011KT P6SM SKC
     FM281700 31008KT P6SM FEW250
     FM281900 27007KT P6SM SCT200
     FM282200 VRB04KT P6SM BKN200=

USA.gov is the U.S. government's official web portal to all federal, state and local government web resources and services.